map of PVA home
PVA - Airport
Location
City:  Providencia, Providencia Island, San Andrés y Providencia, Colombia
Name:El Embrujo
ICAO:SKPV
IATA:PVA

Details
Type:Airport (Aerodrome, Airfield)
Latitude:13°21'25"N (13.356944)
Longitude:81°21'30"W (-81.358329)
Datum:WGS 1984
Elevation:10 ft (3 m)
Variation:4.14°W (WMM2015 magnetic declination)
-0.14° annual change
Runways:1
Longest:3832 × 50 ft (1168 × 15 m), paved

Time
Time Zone:UTC-5
Local Time:

Weather
METAR:SKPV 240000Z VRB04KT 9999 FEW017 28/25 A2986

Related Locations
Nearby:
Farthest:CCK: 12296 mi / 19789 km
West Island (Pulau Panjang) [Cocos (Keeling) Islands], CC

Find:

   beyond  
but within

Other Information
Maps:
NOTAMs:
Links:
Sources:

  
  • flag of Colombia
  • flag of San Andrés y Providencia
  

Sectional Chart

Flight Planning
at skyvector.com

Satellite Image

Google Maps Satellite view

 

Copyright © 2004-2018 Karl L. Swartz. All rights reserved.
The Great Circle Mapper name and logo are trademarks of the Great Circle Mapper.
All other trademarks mentioned herein belong to their respective owners.
Please see credits for attibutions and further copyright information.

  Follow gcmap on Facebook Follow gcmap on Twitter Follow gcmap on Google+ GCmap on LinkedIn

hCard Microformat

Geo Microformat